Time;durP1;ratioP1;P1;durP2;ratioP2;P2;SDS_P1;SDS_P2;PMS_P1;PMS_P2;Temp;Humidity;BMP_temperature;BMP_pressure;BME280_temperature;BME280_humidity;BME280_pressure;Samples;Min_cycle;Max_cycle;Signal;HPM_P1;HPM_P2
2022/09/21 00:00:37;;;;;;;1.35;0.70;;;;;;;25.42;31.08;96776.50;5014640;28;20494;-36
2022/09/21 00:03:03;;;;;;;1.00;0.40;;;;;;;25.51;30.94;96773.38;5014532;28;20029;-35
2022/09/21 00:05:29;;;;;;;1.88;0.50;;;;;;;25.39;31.20;96774.75;5014519;28;20022;-35
2022/09/21 00:07:58;;;;;;;1.10;0.40;;;;;;;25.39;30.85;96772.72;5014406;28;20137;-36
2022/09/21 00:10:23;;;;;;;1.42;0.63;;;;;;;25.51;30.73;96778.19;5014364;28;20026;-37
2022/09/21 00:12:49;;;;;;;0.73;0.50;;;;;;;25.42;30.78;96771.69;5014300;28;20033;-35
2022/09/21 00:15:19;;;;;;;0.57;0.50;;;;;;;25.38;31.01;96773.22;5014191;28;20032;-36
2022/09/21 00:17:48;;;;;;;0.88;0.68;;;;;;;25.51;30.76;96772.63;5014286;28;20025;-36
2022/09/21 00:20:14;;;;;;;0.60;0.50;;;;;;;25.47;30.71;96772.91;5014119;28;20033;-36
2022/09/21 00:22:40;;;;;;;0.55;0.50;;;;;;;25.35;30.92;96772.25;5014264;28;20045;-36
2022/09/21 00:25:08;;;;;;;0.75;0.47;;;;;;;25.37;30.72;96768.94;5012677;28;20037;-36
2022/09/21 00:27:34;;;;;;;3.38;0.40;;;;;;;25.40;30.82;96765.16;5014397;28;20022;-36
2022/09/21 00:30:02;;;;;;;0.70;0.40;;;;;;;25.39;31.00;96767.16;5014186;28;20093;-36
2022/09/21 00:32:30;;;;;;;0.75;0.50;;;;;;;25.38;31.03;96767.69;5013882;28;20051;-35
2022/09/21 00:34:56;;;;;;;0.93;0.55;;;;;;;25.37;30.88;96764.16;5012742;28;20088;-36
2022/09/21 00:37:23;;;;;;;0.80;0.50;;;;;;;25.37;30.28;96764.16;5013713;28;20073;-36
2022/09/21 00:39:48;;;;;;;0.43;0.30;;;;;;;25.34;30.20;96765.22;5013887;28;20025;-35
2022/09/21 00:42:20;;;;;;;0.50;0.40;;;;;;;25.35;30.60;96761.13;5013911;28;20040;-37
2022/09/21 00:44:46;;;;;;;0.88;0.40;;;;;;;25.30;30.54;96763.97;5014246;28;20069;-35
2022/09/21 00:47:15;;;;;;;0.90;0.50;;;;;;;25.31;30.35;96766.22;5013765;28;20056;-36
2022/09/21 00:49:44;;;;;;;0.95;0.60;;;;;;;25.24;30.65;96768.78;5013723;28;20026;-36
2022/09/21 00:52:13;;;;;;;1.10;0.40;;;;;;;25.27;30.44;96765.00;5013977;28;20026;-35
2022/09/21 00:54:52;;;;;;;0.55;0.40;;;;;;;25.23;30.72;96767.28;5013850;28;20079;-37
2022/09/21 00:57:20;;;;;;;1.23;0.40;;;;;;;25.22;30.83;96760.25;5013666;28;20104;-36
2022/09/21 00:59:50;;;;;;;0.55;0.45;;;;;;;25.21;30.71;96755.97;5013462;28;20026;-36
2022/09/21 01:02:17;;;;;;;0.50;0.40;;;;;;;25.33;30.75;96760.91;5013066;28;20026;-35
2022/09/21 01:04:44;;;;;;;0.80;0.50;;;;;;;25.20;30.42;96771.88;5013593;28;20053;-35
2022/09/21 01:07:17;;;;;;;0.32;0.30;;;;;;;25.22;30.68;96766.53;5013589;28;20036;-35
2022/09/21 01:09:45;;;;;;;0.80;0.43;;;;;;;25.31;30.29;96771.78;5012180;28;20100;-35
2022/09/21 01:12:22;;;;;;;1.00;0.60;;;;;;;25.17;30.74;96767.34;5011865;28;20022;-35
2022/09/21 01:15:00;;;;;;;0.43;0.40;;;;;;;25.13;30.39;96761.31;5013653;28;20026;-35
2022/09/21 01:17:44;;;;;;;0.60;0.50;;;;;;;25.11;30.96;96766.63;5013469;28;20049;-35
2022/09/21 01:20:28;;;;;;;1.08;0.52;;;;;;;25.20;30.26;96765.56;5013444;28;20022;-37
2022/09/21 01:23:15;;;;;;;0.85;0.50;;;;;;;25.24;30.42;96764.00;5013336;28;20030;-36
2022/09/21 01:26:07;;;;;;;0.65;0.40;;;;;;;25.16;30.54;96765.09;5013316;28;20026;-35
2022/09/21 01:28:51;;;;;;;0.93;0.47;;;;;;;25.21;30.36;96761.53;5013477;28;20081;-36
2022/09/21 01:31:24;;;;;;;0.77;0.50;;;;;;;25.18;29.97;96762.53;5013316;28;20430;-36
2022/09/21 01:33:59;;;;;;;1.20;0.50;;;;;;;25.15;30.15;96761.56;5013563;28;20029;-36
2022/09/21 01:36:29;;;;;;;0.55;0.43;;;;;;;25.15;30.27;96756.00;5012049;28;20056;-35
2022/09/21 01:39:06;;;;;;;1.23;0.50;;;;;;;25.05;30.56;96758.34;5013421;28;20026;-36
2022/09/21 01:41:32;;;;;;;0.60;0.45;;;;;;;25.07;30.43;96749.50;5013616;28;20061;-35
2022/09/21 01:44:08;;;;;;;0.68;0.40;;;;;;;25.03;30.52;96757.34;5013210;28;20835;-36
2022/09/21 01:46:36;;;;;;;0.90;0.45;;;;;;;25.08;30.21;96753.78;5013371;28;20022;-36
2022/09/21 01:49:16;;;;;;;0.70;0.50;;;;;;;25.08;30.76;96764.13;5013547;28;20435;-36
2022/09/21 01:51:53;;;;;;;0.47;0.40;;;;;;;25.09;30.27;96754.56;5013326;28;20025;-36
2022/09/21 01:54:23;;;;;;;1.67;0.60;;;;;;;25.10;30.26;96754.00;5013366;28;20437;-37
2022/09/21 01:56:56;;;;;;;2.40;0.40;;;;;;;25.08;30.70;96742.69;5013493;28;20022;-36
2022/09/21 01:59:36;;;;;;;0.68;0.50;;;;;;;25.11;30.41;96746.44;5012958;28;20080;-36
2022/09/21 02:02:12;;;;;;;0.52;0.40;;;;;;;25.14;30.15;96740.63;5013190;28;20054;-36
2022/09/21 02:04:38;;;;;;;0.68;0.47;;;;;;;25.15;29.88;96736.56;5013266;28;20021;-36
2022/09/21 02:07:05;;;;;;;0.70;0.52;;;;;;;25.12;30.39;96742.41;5013082;28;20080;-36
2022/09/21 02:09:31;;;;;;;0.52;0.50;;;;;;;25.03;30.48;96746.25;5013078;28;20363;-35
2022/09/21 02:11:57;;;;;;;1.33;0.50;;;;;;;25.00;30.49;96747.28;5013045;28;20022;-35
2022/09/21 02:14:24;;;;;;;1.55;0.57;;;;;;;24.96;30.74;96741.28;5014985;28;20032;-36
2022/09/21 02:17:19;;;;;;;1.50;0.40;;;;;;;24.98;30.08;96745.00;5015157;28;20034;-35
2022/09/21 02:19:53;;;;;;;0.80;0.40;;;;;;;25.00;30.46;96736.94;5022618;28;20042;-37
2022/09/21 02:22:38;;;;;;;0.43;0.40;;;;;;;24.98;30.74;96736.69;5016288;28;20025;-35
2022/09/21 02:25:32;;;;;;;0.70;0.40;;;;;;;25.01;30.29;96734.91;5016168;28;20026;-35
2022/09/21 02:28:16;;;;;;;0.47;0.40;;;;;;;24.96;30.67;96742.03;5016348;28;20033;-36
2022/09/21 02:30:48;;;;;;;2.45;0.60;;;;;;;24.92;30.67;96735.19;5016123;28;20489;-37
2022/09/21 02:33:31;;;;;;;1.10;0.52;;;;;;;24.92;30.67;96735.97;5016360;28;20083;-37
2022/09/21 02:36:18;;;;;;;0.98;0.50;;;;;;;24.96;30.69;96735.72;5016007;28;20049;-35
2022/09/21 02:38:52;;;;;;;0.77;0.40;;;;;;;24.97;30.80;96734.44;5016225;28;20029;-36
2022/09/21 02:41:29;;;;;;;0.95;0.57;;;;;;;24.94;30.61;96733.47;5016020;28;20485;-37
2022/09/21 02:44:13;;;;;;;1.08;0.50;;;;;;;24.93;30.41;96725.66;5015984;28;20062;-36
2022/09/21 02:47:20;;;;;;;0.70;0.40;;;;;;;24.95;30.43;96728.66;5014493;28;20121;-35
2022/09/21 02:49:52;;;;;;;0.60;0.40;;;;;;;24.87;30.80;96733.22;5015712;28;20041;-36
2022/09/21 02:52:19;;;;;;;0.98;0.40;;;;;;;24.97;30.20;96737.22;5016007;28;20104;-36
2022/09/21 02:54:49;;;;;;;0.80;0.50;;;;;;;24.97;30.38;96737.22;5015930;28;20034;-35
2022/09/21 02:57:17;;;;;;;1.08;0.40;;;;;;;24.96;30.39;96735.72;5015903;28;20378;-36
2022/09/21 02:59:43;;;;;;;2.15;0.57;;;;;;;24.90;30.18;96743.28;5015687;28;20026;-35
2022/09/21 03:02:09;;;;;;;0.85;0.47;;;;;;;24.95;30.21;96737.75;5015660;28;20387;-36
2022/09/21 03:04:35;;;;;;;1.15;0.40;;;;;;;24.88;30.31;96740.25;5015647;28;20037;-37
2022/09/21 03:07:01;;;;;;;0.80;0.50;;;;;;;24.93;30.31;96753.38;5015420;28;20032;-35
2022/09/21 03:09:26;;;;;;;1.58;0.60;;;;;;;24.84;30.63;96751.66;5014152;28;20017;-35
2022/09/21 03:11:52;;;;;;;0.73;0.50;;;;;;;24.93;30.43;96754.13;5015535;28;20030;-36
2022/09/21 03:14:18;;;;;;;1.08;0.40;;;;;;;24.90;30.60;96748.84;5015151;28;20037;-35
2022/09/21 03:16:44;;;;;;;0.57;0.40;;;;;;;24.87;31.06;96749.84;5015518;28;20026;-35
2022/09/21 03:19:10;;;;;;;0.85;0.47;;;;;;;24.89;30.80;96748.06;5015129;28;20034;-35
2022/09/21 03:21:36;;;;;;;0.50;0.32;;;;;;;24.79;30.62;96746.13;5013952;28;20034;-36
2022/09/21 03:24:01;;;;;;;1.15;0.50;;;;;;;24.83;30.43;96752.16;5015074;28;20017;-35
2022/09/21 03:26:27;;;;;;;0.77;0.50;;;;;;;24.82;30.35;96747.88;5014820;28;20481;-35
2022/09/21 03:28:53;;;;;;;0.85;0.50;;;;;;;24.80;31.06;96751.16;5015338;28;20014;-35
2022/09/21 03:31:19;;;;;;;1.77;0.50;;;;;;;24.88;30.62;96746.56;5015139;28;20079;-35
2022/09/21 03:33:45;;;;;;;0.57;0.50;;;;;;;24.82;30.71;96753.44;5014892;28;20033;-37
2022/09/21 03:36:10;;;;;;;1.08;0.47;;;;;;;24.88;30.11;96752.13;5014820;28;20050;-36
2022/09/21 03:38:37;;;;;;;0.98;0.47;;;;;;;24.85;31.24;96753.13;5014779;28;20038;-36
2022/09/21 03:41:04;;;;;;;1.23;0.47;;;;;;;24.83;30.93;96746.63;5014817;28;20029;-35
2022/09/21 03:43:29;;;;;;;0.70;0.32;;;;;;;24.90;30.93;96749.59;5014876;28;20437;-35
2022/09/21 03:45:55;;;;;;;1.27;0.57;;;;;;;24.85;30.74;96752.41;5013816;28;20022;-35
2022/09/21 03:48:21;;;;;;;0.65;0.40;;;;;;;24.84;30.80;96756.44;5014872;28;20382;-35
2022/09/21 03:50:46;;;;;;;0.77;0.40;;;;;;;24.83;30.93;96757.72;5014796;28;20018;-37
2022/09/21 03:53:12;;;;;;;1.73;0.50;;;;;;;24.88;30.66;96762.47;5014760;28;20025;-37
2022/09/21 03:55:38;;;;;;;0.70;0.40;;;;;;;24.89;31.06;96759.19;5014570;28;20467;-36
2022/09/21 03:58:04;;;;;;;1.33;0.60;;;;;;;24.84;30.27;96770.31;5014678;28;20034;-36
2022/09/21 04:00:30;;;;;;;1.33;0.45;;;;;;;24.86;30.30;96778.84;5014620;28;20057;-35
2022/09/21 04:02:55;;;;;;;0.85;0.40;;;;;;;24.84;30.43;96773.09;5014512;28;20072;-37
2022/09/21 04:05:21;;;;;;;0.50;0.40;;;;;;;24.92;31.17;96771.28;5014425;28;20030;-35
2022/09/21 04:07:47;;;;;;;1.45;0.60;;;;;;;24.82;30.94;96767.31;5014343;28;20052;-35
2022/09/21 04:10:15;;;;;;;1.60;0.50;;;;;;;24.84;30.52;96778.66;5014375;28;20483;-36
2022/09/21 04:12:42;;;;;;;2.03;0.60;;;;;;;24.87;30.72;96777.59;5014473;28;20030;-35
2022/09/21 04:15:18;;;;;;;0.90;0.45;;;;;;;24.78;30.73;96778.66;5014543;28;20037;-35
2022/09/21 04:17:45;;;;;;;0.70;0.40;;;;;;;24.83;31.28;96777.88;5014728;28;20076;-35
2022/09/21 04:20:10;;;;;;;1.60;0.55;;;;;;;24.82;30.71;96767.31;5014366;28;20022;-35
2022/09/21 04:22:37;;;;;;;0.75;0.57;;;;;;;24.80;31.29;96778.16;5014131;28;20029;-35
2022/09/21 04:25:04;;;;;;;0.77;0.52;;;;;;;24.79;30.50;96777.41;5014245;28;20108;-35
2022/09/21 04:27:31;;;;;;;0.73;0.60;;;;;;;24.78;31.25;96775.88;5013951;28;20034;-35
2022/09/21 04:29:57;;;;;;;0.70;0.50;;;;;;;24.80;31.30;96778.16;5014026;28;20096;-35
2022/09/21 04:32:22;;;;;;;0.43;0.40;;;;;;;24.74;31.07;96782.97;5013908;28;20053;-36
2022/09/21 04:34:50;;;;;;;0.52;0.40;;;;;;;24.74;30.69;96788.50;5014189;28;20021;-36
2022/09/21 04:37:22;;;;;;;0.82;0.50;;;;;;;24.60;30.91;96782.06;5012999;28;20056;-36
2022/09/21 04:40:10;;;;;;;1.02;0.57;;;;;;;24.77;30.61;96787.50;5014180;28;20026;-35
2022/09/21 04:43:05;;;;;;;1.35;0.50;;;;;;;24.77;30.70;96784.72;5013971;28;20048;-35
2022/09/21 04:45:47;;;;;;;0.68;0.40;;;;;;;24.74;30.45;96785.72;5013620;28;20105;-36
2022/09/21 04:48:27;;;;;;;0.80;0.50;;;;;;;24.65;31.34;96784.78;5013689;28;20029;-35
2022/09/21 04:51:15;;;;;;;0.88;0.50;;;;;;;24.70;31.11;96784.00;5013413;28;20144;-35
2022/09/21 04:53:49;;;;;;;1.00;0.63;;;;;;;24.75;30.59;96782.44;5013565;28;20029;-36
2022/09/21 04:56:19;;;;;;;0.50;0.40;;;;;;;24.70;30.86;96777.72;5013629;28;20053;-36
2022/09/21 04:58:44;;;;;;;0.93;0.40;;;;;;;24.59;31.37;96786.84;5013435;28;20041;-36
2022/09/21 05:01:10;;;;;;;0.30;0.30;;;;;;;24.63;31.12;96787.31;5013851;28;20030;-35
2022/09/21 05:03:36;;;;;;;0.60;0.40;;;;;;;24.74;30.40;96788.50;5013732;28;20036;-35
2022/09/21 05:06:01;;;;;;;1.85;0.55;;;;;;;24.73;30.77;96796.06;5013600;28;20054;-35
2022/09/21 05:11:14;;;;;;;20.23;2.35;;;;;;;24.63;30.51;96800.41;5013937;28;20078;-36
2022/09/21 05:13:40;;;;;;;8.27;1.48;;;;;;;24.78;30.93;96805.66;5013529;28;20022;-36
2022/09/21 05:16:06;;;;;;;5.95;1.20;;;;;;;24.73;30.68;96803.66;5013528;28;20084;-36
2022/09/21 05:18:31;;;;;;;7.93;1.63;;;;;;;24.73;30.62;96806.44;5012143;28;20021;-36
2022/09/21 05:20:59;;;;;;;10.93;1.52;;;;;;;24.80;30.54;96806.66;5013564;28;20454;-36
2022/09/21 05:23:25;;;;;;;4.05;1.40;;;;;;;24.75;30.61;96809.44;5013425;28;20029;-36
2022/09/21 05:25:51;;;;;;;7.63;1.20;;;;;;;24.79;30.58;96801.59;5013626;28;20374;-37
2022/09/21 05:28:18;;;;;;;4.97;0.93;;;;;;;24.79;30.30;96809.94;5013692;28;20047;-37
2022/09/21 05:31:01;;;;;;;4.85;1.38;;;;;;;24.72;30.43;96811.22;5013520;28;20168;-37
2022/09/21 05:33:29;;;;;;;3.85;1.02;;;;;;;24.72;31.44;96816.03;5013394;28;20466;-35
2022/09/21 05:36:20;;;;;;;6.25;1.27;;;;;;;24.64;30.81;96818.56;5013285;28;20115;-35
2022/09/21 05:38:45;;;;;;;5.07;1.15;;;;;;;24.63;31.33;96814.28;5013304;28;20079;-35
2022/09/21 05:41:14;;;;;;;4.60;1.40;;;;;;;24.74;30.27;96813.47;5013235;28;20022;-36
2022/09/21 05:43:40;;;;;;;4.85;1.15;;;;;;;24.67;30.17;96807.22;5013264;28;20036;-36
2022/09/21 05:46:36;;;;;;;5.15;1.05;;;;;;;24.61;30.29;96817.56;5013302;28;20034;-35
2022/09/21 05:49:16;;;;;;;2.70;1.17;;;;;;;24.66;30.53;96811.25;5016881;28;20030;-35
2022/09/21 05:52:16;;;;;;;2.88;0.80;;;;;;;24.57;31.24;96810.78;5017324;28;20025;-37
2022/09/21 05:55:03;;;;;;;5.15;1.42;;;;;;;24.63;30.30;96809.50;5015611;28;20406;-35
2022/09/21 05:57:54;;;;;;;1.83;0.80;;;;;;;24.73;30.28;96814.75;5016788;28;20018;-35
2022/09/21 06:00:21;;;;;;;4.25;0.98;;;;;;;24.72;30.31;96816.78;5016815;28;20022;-35
2022/09/21 06:02:56;;;;;;;2.08;0.60;;;;;;;24.68;30.67;96814.28;5016724;28;20026;-35
2022/09/21 06:05:21;;;;;;;1.70;0.70;;;;;;;24.64;30.60;96824.88;5016846;28;20021;-35
2022/09/21 06:07:47;;;;;;;2.38;0.60;;;;;;;24.69;29.97;96818.56;5016591;28;20109;-36
2022/09/21 06:10:13;;;;;;;0.85;0.60;;;;;;;24.61;30.55;96816.81;5016665;28;20037;-35
2022/09/21 06:12:39;;;;;;;0.82;0.60;;;;;;;24.67;30.60;96823.09;5016450;28;20423;-35
2022/09/21 06:15:06;;;;;;;1.27;0.60;;;;;;;24.70;30.19;96831.16;5016651;28;20151;-36
2022/09/21 06:17:31;;;;;;;1.25;0.50;;;;;;;24.72;30.35;96827.88;5016747;28;20021;-36
2022/09/21 06:19:57;;;;;;;1.23;0.60;;;;;;;24.66;30.41;96838.97;5015111;28;20033;-35
2022/09/21 06:22:22;;;;;;;0.93;0.50;;;;;;;24.57;30.64;96830.97;5016491;28;20030;-35
2022/09/21 06:24:48;;;;;;;1.33;0.65;;;;;;;24.60;30.67;96835.47;5016566;28;20156;-36
2022/09/21 06:27:13;;;;;;;2.40;0.65;;;;;;;24.67;30.50;96837.72;5016323;28;20071;-36
2022/09/21 06:29:39;;;;;;;1.98;0.70;;;;;;;24.65;30.26;96845.78;5016182;28;20471;-36
2022/09/21 06:32:04;;;;;;;1.30;0.60;;;;;;;24.65;30.63;96851.34;5016338;28;20029;-35
2022/09/21 06:34:30;;;;;;;0.98;0.50;;;;;;;24.49;31.02;96849.38;5014965;28;20497;-36
2022/09/21 06:36:56;;;;;;;0.63;0.40;;;;;;;24.68;30.13;96850.31;5015854;28;20516;-35
2022/09/21 06:39:22;;;;;;;0.70;0.40;;;;;;;24.68;29.69;96847.56;5015989;28;20036;-35
2022/09/21 06:41:47;;;;;;;1.55;0.50;;;;;;;24.64;30.24;96851.84;5016131;28;20052;-35
2022/09/21 06:44:13;;;;;;;1.00;0.40;;;;;;;24.56;30.55;96854.41;5016065;28;20104;-36
2022/09/21 06:46:38;;;;;;;2.03;0.60;;;;;;;24.70;30.69;96858.91;5016015;28;20386;-36
2022/09/21 06:49:04;;;;;;;0.55;0.52;;;;;;;24.57;30.00;96855.91;5014498;28;20126;-36
2022/09/21 06:51:29;;;;;;;0.80;0.60;;;;;;;24.57;30.82;96855.16;5018632;28;20026;-36
2022/09/21 06:53:56;;;;;;;1.95;0.60;;;;;;;24.57;29.88;96861.47;5015162;28;20447;-35
2022/09/21 06:56:22;;;;;;;1.10;0.50;;;;;;;24.65;30.12;96864.44;5015768;28;20025;-35
2022/09/21 06:58:47;;;;;;;0.60;0.40;;;;;;;24.66;30.53;96865.97;5015394;28;20072;-35
2022/09/21 07:01:14;;;;;;;1.00;0.50;;;;;;;24.61;29.77;96859.16;5014966;28;20021;-35
2022/09/21 07:03:41;;;;;;;0.80;0.45;;;;;;;24.57;29.87;96861.47;5015681;28;20018;-36
2022/09/21 07:06:10;;;;;;;0.68;0.47;;;;;;;24.65;30.66;96861.69;5015781;28;20028;-36
2022/09/21 07:08:35;;;;;;;1.42;0.40;;;;;;;24.59;30.53;96863.72;5015800;28;20532;-35
2022/09/21 07:11:01;;;;;;;1.63;0.57;;;;;;;24.59;30.28;96870.03;5020521;28;20108;-35
2022/09/21 07:13:27;;;;;;;0.73;0.30;;;;;;;24.60;30.99;96868.00;5035261;28;20037;-35
2022/09/21 07:15:53;;;;;;;1.83;0.50;;;;;;;24.59;30.79;96872.81;5034415;28;20029;-35
2022/09/21 07:18:18;;;;;;;1.05;0.45;;;;;;;24.64;30.06;96866.47;5024718;28;20026;-36
2022/09/21 07:20:44;;;;;;;1.08;0.60;;;;;;;24.72;30.60;96877.81;5025363;28;20437;-35
2022/09/21 07:23:17;;;;;;;0.85;0.40;;;;;;;24.55;31.21;96874.31;5020529;28;20470;-36
2022/09/21 07:25:45;;;;;;;1.48;0.50;;;;;;;24.55;31.20;96869.53;5015285;28;20113;-35
2022/09/21 07:28:11;;;;;;;0.77;0.60;;;;;;;24.56;30.84;96873.81;5011291;28;20048;-36
2022/09/21 07:30:38;;;;;;;0.65;0.50;;;;;;;24.60;30.52;96884.66;5013418;28;20030;-35
2022/09/21 07:33:05;;;;;;;0.80;0.50;;;;;;;24.56;30.85;96884.91;5013320;28;20091;-36
2022/09/21 07:35:31;;;;;;;0.98;0.47;;;;;;;24.53;30.26;96897.00;5013125;28;20755;-35
2022/09/21 07:37:58;;;;;;;0.77;0.60;;;;;;;24.52;31.18;96903.06;5013013;28;20085;-36
2022/09/21 07:40:23;;;;;;;0.68;0.50;;;;;;;24.62;30.82;96902.25;5012764;28;20068;-36
2022/09/21 07:42:49;;;;;;;1.52;0.40;;;;;;;24.66;30.20;96908.31;5012964;28;20450;-37
2022/09/21 07:45:14;;;;;;;0.95;0.40;;;;;;;24.64;30.76;96913.59;5012878;28;20092;-36
2022/09/21 07:47:40;;;;;;;1.10;0.50;;;;;;;24.53;30.93;96916.41;5013004;28;20022;-35
2022/09/21 07:50:06;;;;;;;1.27;0.52;;;;;;;24.57;30.55;96916.91;5013122;28;20038;-36
2022/09/21 07:52:31;;;;;;;0.63;0.50;;;;;;;24.48;31.17;96919.94;5012770;28;20099;-36
2022/09/21 07:54:57;;;;;;;1.05;0.57;;;;;;;24.64;30.45;96915.63;5011120;28;20028;-36
2022/09/21 08:00:07;;;;;;;0.77;0.50;;;;;;;24.53;31.14;96915.66;5012672;28;20029;-35
2022/09/21 08:02:33;;;;;;;0.73;0.50;;;;;;;24.55;30.58;96929.78;5012320;28;20475;-35
2022/09/21 08:04:58;;;;;;;1.58;0.60;;;;;;;24.56;30.40;96931.28;5012730;28;20097;-36
2022/09/21 08:07:24;;;;;;;1.15;0.80;;;;;;;24.53;30.73;96938.59;5011241;28;20501;-35
2022/09/21 08:09:50;;;;;;;2.03;0.60;;;;;;;24.54;30.80;96936.59;5012578;28;20026;-35
2022/09/21 08:12:17;;;;;;;0.82;0.52;;;;;;;24.44;31.36;96933.34;5012606;28;20029;-36
2022/09/21 08:14:43;;;;;;;1.05;0.63;;;;;;;24.65;30.89;96933.78;5011001;28;20200;-35
2022/09/21 08:17:09;;;;;;;1.10;0.40;;;;;;;24.64;30.57;96933.03;5012629;28;20071;-36
2022/09/21 08:19:35;;;;;;;0.65;0.50;;;;;;;24.47;31.17;96937.13;5012381;28;20414;-35
2022/09/21 08:22:01;;;;;;;0.77;0.40;;;;;;;24.66;30.81;96938.81;5012591;28;20030;-36
2022/09/21 08:24:27;;;;;;;0.55;0.35;;;;;;;24.52;30.91;96937.09;5010963;28;20040;-35
2022/09/21 08:26:54;;;;;;;0.70;0.38;;;;;;;24.50;31.00;96939.59;5012222;28;20462;-36
2022/09/21 08:29:20;;;;;;;1.75;0.57;;;;;;;22.78;32.58;96948.34;5010876;28;20109;-34
2022/09/21 08:31:45;;;;;;;6.30;0.70;;;;;;;23.58;31.38;96951.69;5012133;28;20129;-34
2022/09/21 08:34:11;;;;;;;4.47;1.15;;;;;;;24.02;30.82;96955.75;5011005;28;20034;-34
2022/09/21 08:36:37;;;;;;;2.60;0.73;;;;;;;24.28;29.86;96951.50;5011858;28;20605;-34
2022/09/21 08:39:06;;;;;;;10.25;0.73;;;;;;;24.43;30.10;96948.44;5012039;28;20132;-34
2022/09/21 08:41:39;;;;;;;1.35;0.60;;;;;;;24.50;29.72;96945.16;5012178;28;20054;-34
2022/09/21 08:44:19;;;;;;;2.10;0.60;;;;;;;24.54;30.23;96951.19;5011791;28;20030;-34
2022/09/21 08:47:01;;;;;;;2.70;0.88;;;;;;;24.44;30.39;96949.97;5033460;28;20031;-34
2022/09/21 08:49:28;;;;;;;1.17;0.55;;;;;;;24.46;31.09;96950.22;5032969;28;20023;-34
2022/09/21 08:51:59;;;;;;;1.67;0.50;;;;;;;24.52;30.33;96953.72;5033388;28;20546;-34
2022/09/21 08:54:41;;;;;;;1.52;0.50;;;;;;;24.56;30.83;96945.91;5032760;28;20029;-34
2022/09/21 08:57:12;;;;;;;0.90;0.40;;;;;;;24.50;30.36;96947.91;5032902;28;20112;-34
2022/09/21 08:59:43;;;;;;;1.67;0.50;;;;;;;24.47;30.83;96946.19;5033272;28;20302;-34
2022/09/21 09:02:30;;;;;;;2.13;0.50;;;;;;;24.57;30.85;96952.22;5033545;28;20390;-34
2022/09/21 09:05:24;;;;;;;1.27;0.50;;;;;;;24.64;30.94;96952.44;5033383;28;20037;-35
2022/09/21 09:08:05;;;;;;;1.02;0.50;;;;;;;24.39;31.20;96955.50;5033331;28;20105;-34
2022/09/21 09:10:49;;;;;;;0.93;0.40;;;;;;;24.41;31.02;96953.00;5032228;28;20034;-34
2022/09/21 09:13:32;;;;;;;1.98;0.47;;;;;;;24.53;31.17;96946.91;5033676;28;20036;-34
2022/09/21 09:16:16;;;;;;;1.13;0.40;;;;;;;24.56;30.58;96959.03;5033242;28;20030;-34
2022/09/21 09:18:50;;;;;;;0.65;0.43;;;;;;;24.22;31.31;96956.28;5033334;28;20030;-34
2022/09/21 09:21:33;;;;;;;0.52;0.40;;;;;;;24.29;30.87;96957.78;5033339;28;20029;-34
2022/09/21 09:23:59;;;;;;;;;;;;;;;24.33;31.24;96958.28;5036259;28;20029;-34
2022/09/21 09:26:41;;;;;;;0.75;0.50;;;;;;;24.52;30.48;96958.50;5035912;28;19913;-34
2022/09/21 09:29:12;;;;;;;1.00;0.40;;;;;;;24.35;30.97;96958.56;5037281;28;20048;-34
2022/09/21 09:31:39;;;;;;;1.58;0.50;;;;;;;24.33;31.01;96955.53;5037262;28;20100;-34
2022/09/21 09:34:20;;;;;;;1.63;0.60;;;;;;;24.44;30.88;96960.28;5037436;28;20033;-34
2022/09/21 09:36:51;;;;;;;0.55;0.40;;;;;;;24.50;30.75;96950.69;5036792;28;20049;-34
2022/09/21 09:39:16;;;;;;;0.77;0.50;;;;;;;24.53;30.95;96960.78;5037032;28;20033;-34
2022/09/21 09:41:50;;;;;;;0.70;0.55;;;;;;;24.24;31.67;96950.22;5037057;28;20469;-34
2022/09/21 09:44:42;;;;;;;0.63;0.38;;;;;;;24.32;31.71;96954.00;5036893;28;20029;-34
2022/09/21 09:47:31;;;;;;;2.03;0.50;;;;;;;24.55;31.10;96955.50;5036693;28;20088;-35
2022/09/21 09:50:10;;;;;;;1.08;0.50;;;;;;;24.44;31.40;96952.75;5036225;28;20086;-34
2022/09/21 09:52:36;;;;;;;0.85;0.30;;;;;;;24.36;31.26;96951.00;5036672;28;20071;-34
2022/09/21 09:55:14;;;;;;;2.15;0.50;;;;;;;24.35;31.04;96958.56;5036728;28;20025;-34
2022/09/21 09:57:39;;;;;;;1.15;0.60;;;;;;;24.59;30.94;96953.22;5036543;28;20030;-34
2022/09/21 10:00:11;;;;;;;0.93;0.50;;;;;;;24.57;30.99;96949.44;5036421;28;20052;-34
2022/09/21 10:02:49;;;;;;;1.15;0.50;;;;;;;24.42;31.15;96944.16;5036757;28;20391;-34
2022/09/21 10:05:23;;;;;;;1.80;0.50;;;;;;;24.39;31.21;96956.25;5036866;28;20181;-34
2022/09/21 10:07:49;;;;;;;0.95;0.57;;;;;;;24.53;30.64;96949.69;5036339;28;20405;-34
2022/09/21 10:10:35;;;;;;;2.15;0.50;;;;;;;24.47;30.73;96948.97;5036574;28;20029;-34
2022/09/21 10:13:40;;;;;;;1.48;0.60;;;;;;;24.60;31.00;96953.97;5036427;28;20021;-34
2022/09/21 10:16:22;;;;;;;2.10;0.40;;;;;;;24.56;31.08;96947.94;5034012;28;20116;-34
2022/09/21 10:19:00;;;;;;;1.98;0.80;;;;;;;24.09;31.55;96949.72;5034136;28;20037;-34
2022/09/21 10:21:42;;;;;;;1.20;0.50;;;;;;;23.86;29.16;96949.69;5034291;28;20044;-34
2022/09/21 10:24:22;;;;;;;2.07;0.70;;;;;;;24.09;31.17;96950.47;5034092;28;20061;-34
2022/09/21 10:26:50;;;;;;;0.70;0.40;;;;;;;23.92;32.28;96946.94;5034202;28;20053;-34
2022/09/21 10:29:21;;;;;;;0.70;0.40;;;;;;;24.45;31.45;96950.72;5034041;28;20482;-34
2022/09/21 10:32:03;;;;;;;0.70;0.40;;;;;;;24.37;30.61;96953.22;5034159;28;20033;-34
2022/09/21 10:34:31;;;;;;;1.38;0.30;;;;;;;24.13;29.43;96947.44;5032913;28;20100;-34
2022/09/21 10:37:00;;;;;;;1.13;0.40;;;;;;;24.33;31.24;96947.22;5033732;28;20050;-35
2022/09/21 10:39:30;;;;;;;0.95;0.38;;;;;;;24.36;30.56;96951.72;5033764;28;20045;-34
2022/09/21 10:42:05;;;;;;;0.85;0.40;;;;;;;24.22;30.87;96953.53;5033676;28;20034;-34
2022/09/21 10:44:45;;;;;;;1.67;0.50;;;;;;;24.35;31.12;96947.47;5019455;28;20084;-34
2022/09/21 10:47:13;;;;;;;0.63;0.40;;;;;;;24.07;31.20;96957.78;5031525;28;20060;-34
2022/09/21 10:49:45;;;;;;;1.13;0.50;;;;;;;24.35;31.67;96961.31;5022217;28;20454;-34
2022/09/21 10:52:11;;;;;;;0.70;0.40;;;;;;;24.00;31.23;96954.22;5014382;28;20424;-34
2022/09/21 10:54:40;;;;;;;1.40;0.40;;;;;;;24.27;31.27;96949.22;5013923;28;20095;-34
2022/09/21 10:57:15;;;;;;;3.00;0.57;;;;;;;24.20;30.92;96949.72;5014063;28;20579;-34
2022/09/21 10:59:41;;;;;;;3.42;0.50;;;;;;;23.94;30.95;96956.25;5014015;28;20044;-34
2022/09/21 11:02:32;;;;;;;0.88;0.50;;;;;;;24.40;31.35;96955.00;5026229;28;20025;-34
2022/09/21 11:05:15;;;;;;;1.23;0.45;;;;;;;24.35;30.66;96953.00;5033838;28;20370;-34
2022/09/21 11:08:23;;;;;;;0.40;0.28;;;;;;;24.46;31.44;96949.47;5033505;28;20030;-34
2022/09/21 11:11:07;;;;;;;1.75;0.50;;;;;;;24.66;31.40;96952.69;5033274;28;20034;-35
2022/09/21 11:13:41;;;;;;;0.63;0.63;;;;;;;24.37;31.51;96953.22;5033499;28;20036;-34
2022/09/21 11:16:07;;;;;;;0.98;0.40;;;;;;;24.56;31.28;96948.69;5033271;28;20029;-34
2022/09/21 11:19:06;;;;;;;1.60;0.40;;;;;;;24.30;30.17;96953.75;5033271;28;20379;-34
2022/09/21 11:21:54;;;;;;;0.77;0.65;;;;;;;24.12;29.20;96959.78;5033632;28;20120;-34
2022/09/21 11:24:59;;;;;;;2.05;0.40;;;;;;;24.37;31.16;96963.56;5032189;28;20437;-34
2022/09/21 11:27:38;;;;;;;0.80;0.40;;;;;;;24.11;30.98;96956.25;5029233;28;20111;-34
2022/09/21 11:30:15;;;;;;;1.33;0.38;;;;;;;24.34;30.32;96957.78;5030881;28;20030;-34
2022/09/21 11:32:51;;;;;;;0.95;0.65;;;;;;;24.18;30.43;96955.00;5030464;28;20206;-35
2022/09/21 11:35:46;;;;;;;0.63;0.38;;;;;;;24.29;31.10;96958.53;5030618;28;20037;-34
2022/09/21 11:38:11;;;;;;;1.70;0.70;;;;;;;24.27;29.84;96955.53;5030639;28;20042;-35
2022/09/21 11:41:16;;;;;;;0.80;0.50;;;;;;;24.30;30.41;96954.50;5014019;28;20033;-34
2022/09/21 11:43:58;;;;;;;0.52;0.38;;;;;;;24.06;29.89;96956.25;5030476;28;20037;-34
2022/09/21 11:46:48;;;;;;;0.63;0.43;;;;;;;24.36;30.72;96948.22;5030265;28;20056;-34
2022/09/21 11:49:49;;;;;;;1.50;0.40;;;;;;;24.69;30.85;96954.44;5030636;28;20025;-34
2022/09/21 11:52:35;;;;;;;0.77;0.47;;;;;;;24.69;30.77;96957.22;5030521;28;20041;-34
2022/09/21 11:55:13;;;;;;;2.50;0.40;;;;;;;24.76;30.62;96957.94;5030213;28;20099;-34
2022/09/21 11:58:01;;;;;;;0.57;0.45;;;;;;;24.38;29.51;96951.97;5025307;28;20038;-34
2022/09/21 12:00:34;;;;;;;1.02;0.65;;;;;;;24.56;30.94;96948.69;5012911;28;20036;-34
2022/09/21 12:03:17;;;;;;;0.63;0.40;;;;;;;24.74;31.04;96955.69;5012950;28;20462;-34